Monteagle, Tennessee
Current Conditions -  °F | °C
As of 3:35 AM on Wednesday 22 Oct 2014 (Local Time) from KBGF Reporting Station
Overcast Overcast  
Wind Chill: 37°   Ceiling: 100
Heat Index: 37°   Visibility: 0.5mi
Dew Point: 37°   Wind: 0mph
Humidity: 100%   Direction: NA
Pressure: 30.13"   Gusts: NA
Location:  35.24°N, 85.84°W
Report Text: KBGF 220835Z AUTO 00000KT 1/2SM OVC001 03/03 A3013 RMK
Loading
Personal Weather Stations






























Interactive Weather Map
Tropical Storm Tracking
New forecast layout! Learn more

10-Day Weather Forecast

Advertisements
Track Severe Weather on mobile